sensor_id;sensor_type;location;lat;lon;timestamp;P1;durP1;ratioP1;P2;durP2;ratioP2
11685;SDS011;5899;51.282;6.094;2023-06-19T00:00:32;4.22;;;3.70;;
11685;SDS011;5899;51.282;6.094;2023-06-19T00:02:58;5.28;;;3.15;;
11685;SDS011;5899;51.282;6.094;2023-06-19T00:05:25;4.43;;;3.47;;
11685;SDS011;5899;51.282;6.094;2023-06-19T00:07:57;3.70;;;3.23;;
11685;SDS011;5899;51.282;6.094;2023-06-19T00:10:27;4.15;;;3.60;;
11685;SDS011;5899;51.282;6.094;2023-06-19T00:13:04;3.87;;;3.43;;
11685;SDS011;5899;51.282;6.094;2023-06-19T00:15:36;4.85;;;3.53;;
11685;SDS011;5899;51.282;6.094;2023-06-19T00:18:05;3.75;;;3.45;;
11685;SDS011;5899;51.282;6.094;2023-06-19T00:20:50;4.15;;;3.75;;
11685;SDS011;5899;51.282;6.094;2023-06-19T00:23:21;3.70;;;3.40;;
11685;SDS011;5899;51.282;6.094;2023-06-19T00:25:48;4.32;;;3.53;;
11685;SDS011;5899;51.282;6.094;2023-06-19T00:31:01;3.83;;;3.10;;
11685;SDS011;5899;51.282;6.094;2023-06-19T00:33:30;3.53;;;3.22;;
11685;SDS011;5899;51.282;6.094;2023-06-19T00:36:02;3.80;;;3.40;;
11685;SDS011;5899;51.282;6.094;2023-06-19T00:38:37;4.82;;;3.58;;
11685;SDS011;5899;51.282;6.094;2023-06-19T00:41:08;5.75;;;3.50;;
11685;SDS011;5899;51.282;6.094;2023-06-19T00:43:36;4.85;;;3.38;;
11685;SDS011;5899;51.282;6.094;2023-06-19T00:46:11;5.07;;;3.83;;
11685;SDS011;5899;51.282;6.094;2023-06-19T00:48:42;4.13;;;3.72;;
11685;SDS011;5899;51.282;6.094;2023-06-19T00:51:16;4.30;;;3.90;;
11685;SDS011;5899;51.282;6.094;2023-06-19T00:53:42;5.00;;;3.75;;
11685;SDS011;5899;51.282;6.094;2023-06-19T00:56:14;4.23;;;3.83;;
11685;SDS011;5899;51.282;6.094;2023-06-19T00:58:45;4.43;;;3.72;;
11685;SDS011;5899;51.282;6.094;2023-06-19T01:01:16;4.25;;;3.70;;
11685;SDS011;5899;51.282;6.094;2023-06-19T01:03:51;4.68;;;4.20;;
11685;SDS011;5899;51.282;6.094;2023-06-19T01:06:20;3.70;;;3.40;;
11685;SDS011;5899;51.282;6.094;2023-06-19T01:09:21;4.25;;;3.80;;
11685;SDS011;5899;51.282;6.094;2023-06-19T01:11:50;4.50;;;3.65;;
11685;SDS011;5899;51.282;6.094;2023-06-19T01:14:24;4.22;;;3.83;;
11685;SDS011;5899;51.282;6.094;2023-06-19T01:17:03;3.92;;;3.50;;
11685;SDS011;5899;51.282;6.094;2023-06-19T01:19:40;4.90;;;3.33;;
11685;SDS011;5899;51.282;6.094;2023-06-19T01:22:23;4.10;;;3.50;;
11685;SDS011;5899;51.282;6.094;2023-06-19T01:25:03;4.00;;;3.60;;
11685;SDS011;5899;51.282;6.094;2023-06-19T01:27:36;4.70;;;3.80;;
11685;SDS011;5899;51.282;6.094;2023-06-19T01:30:06;4.57;;;3.50;;
11685;SDS011;5899;51.282;6.094;2023-06-19T01:32:37;4.07;;;3.63;;
11685;SDS011;5899;51.282;6.094;2023-06-19T01:35:15;3.95;;;3.55;;
11685;SDS011;5899;51.282;6.094;2023-06-19T01:40:50;4.97;;;3.97;;
11685;SDS011;5899;51.282;6.094;2023-06-19T01:43:27;4.28;;;3.65;;
11685;SDS011;5899;51.282;6.094;2023-06-19T01:46:01;5.53;;;3.95;;
11685;SDS011;5899;51.282;6.094;2023-06-19T01:48:28;4.63;;;3.90;;
11685;SDS011;5899;51.282;6.094;2023-06-19T01:50:56;4.05;;;3.65;;
11685;SDS011;5899;51.282;6.094;2023-06-19T01:53:23;3.92;;;3.47;;
11685;SDS011;5899;51.282;6.094;2023-06-19T01:55:57;3.55;;;3.25;;
11685;SDS011;5899;51.282;6.094;2023-06-19T01:58:26;3.60;;;3.20;;
11685;SDS011;5899;51.282;6.094;2023-06-19T02:00:53;4.10;;;2.95;;
11685;SDS011;5899;51.282;6.094;2023-06-19T02:03:21;3.75;;;3.25;;
11685;SDS011;5899;51.282;6.094;2023-06-19T02:05:50;4.25;;;3.22;;
11685;SDS011;5899;51.282;6.094;2023-06-19T02:08:16;3.87;;;3.07;;
11685;SDS011;5899;51.282;6.094;2023-06-19T02:10:45;4.30;;;3.25;;
11685;SDS011;5899;51.282;6.094;2023-06-19T02:13:13;5.00;;;3.42;;
11685;SDS011;5899;51.282;6.094;2023-06-19T02:15:44;4.45;;;3.08;;
11685;SDS011;5899;51.282;6.094;2023-06-19T02:18:11;3.08;;;2.60;;
11685;SDS011;5899;51.282;6.094;2023-06-19T02:20:40;3.77;;;2.90;;
11685;SDS011;5899;51.282;6.094;2023-06-19T02:23:13;3.03;;;2.47;;
11685;SDS011;5899;51.282;6.094;2023-06-19T02:25:44;3.22;;;2.80;;
11685;SDS011;5899;51.282;6.094;2023-06-19T02:28:24;3.42;;;2.70;;
11685;SDS011;5899;51.282;6.094;2023-06-19T02:31:00;3.33;;;2.88;;
11685;SDS011;5899;51.282;6.094;2023-06-19T02:33:32;2.60;;;2.40;;
11685;SDS011;5899;51.282;6.094;2023-06-19T02:36:13;3.30;;;2.60;;
11685;SDS011;5899;51.282;6.094;2023-06-19T02:38:47;2.80;;;2.50;;
11685;SDS011;5899;51.282;6.094;2023-06-19T02:41:14;2.65;;;2.30;;
11685;SDS011;5899;51.282;6.094;2023-06-19T02:43:46;2.70;;;2.45;;
11685;SDS011;5899;51.282;6.094;2023-06-19T02:46:15;4.05;;;2.47;;
11685;SDS011;5899;51.282;6.094;2023-06-19T02:48:44;3.22;;;2.50;;
11685;SDS011;5899;51.282;6.094;2023-06-19T02:51:11;3.55;;;2.72;;
11685;SDS011;5899;51.282;6.094;2023-06-19T02:53:37;3.80;;;2.50;;
11685;SDS011;5899;51.282;6.094;2023-06-19T02:56:07;2.95;;;2.65;;
11685;SDS011;5899;51.282;6.094;2023-06-19T02:58:37;2.72;;;2.30;;
11685;SDS011;5899;51.282;6.094;2023-06-19T03:01:05;3.80;;;2.97;;
11685;SDS011;5899;51.282;6.094;2023-06-19T03:03:33;2.53;;;2.33;;
11685;SDS011;5899;51.282;6.094;2023-06-19T03:06:05;3.50;;;2.22;;
11685;SDS011;5899;51.282;6.094;2023-06-19T03:08:32;2.57;;;2.20;;
11685;SDS011;5899;51.282;6.094;2023-06-19T03:11:08;2.58;;;2.20;;
11685;SDS011;5899;51.282;6.094;2023-06-19T03:13:43;4.20;;;2.20;;
11685;SDS011;5899;51.282;6.094;2023-06-19T03:16:11;2.15;;;1.95;;
11685;SDS011;5899;51.282;6.094;2023-06-19T03:18:39;3.08;;;2.38;;
11685;SDS011;5899;51.282;6.094;2023-06-19T03:21:11;3.33;;;2.50;;
11685;SDS011;5899;51.282;6.094;2023-06-19T03:23:38;2.22;;;2.03;;
11685;SDS011;5899;51.282;6.094;2023-06-19T03:26:06;2.92;;;2.15;;
11685;SDS011;5899;51.282;6.094;2023-06-19T03:28:37;2.93;;;2.20;;
11685;SDS011;5899;51.282;6.094;2023-06-19T03:31:05;2.80;;;2.13;;
11685;SDS011;5899;51.282;6.094;2023-06-19T03:33:36;3.72;;;2.50;;
11685;SDS011;5899;51.282;6.094;2023-06-19T03:36:02;2.70;;;2.38;;
11685;SDS011;5899;51.282;6.094;2023-06-19T03:38:31;2.30;;;2.10;;
11685;SDS011;5899;51.282;6.094;2023-06-19T03:41:00;2.30;;;2.10;;
11685;SDS011;5899;51.282;6.094;2023-06-19T03:43:39;2.72;;;2.08;;
11685;SDS011;5899;51.282;6.094;2023-06-19T03:46:11;3.88;;;2.10;;
11685;SDS011;5899;51.282;6.094;2023-06-19T03:48:41;3.65;;;2.28;;
11685;SDS011;5899;51.282;6.094;2023-06-19T03:51:08;2.20;;;2.00;;
11685;SDS011;5899;51.282;6.094;2023-06-19T03:53:40;3.30;;;2.08;;
11685;SDS011;5899;51.282;6.094;2023-06-19T03:56:08;2.20;;;2.00;;
11685;SDS011;5899;51.282;6.094;2023-06-19T03:58:48;2.72;;;2.20;;
11685;SDS011;5899;51.282;6.094;2023-06-19T04:01:17;3.85;;;2.42;;
11685;SDS011;5899;51.282;6.094;2023-06-19T04:03:45;2.13;;;1.93;;
11685;SDS011;5899;51.282;6.094;2023-06-19T04:06:11;3.90;;;2.33;;
11685;SDS011;5899;51.282;6.094;2023-06-19T04:08:38;2.10;;;1.90;;
11685;SDS011;5899;51.282;6.094;2023-06-19T04:11:05;2.25;;;2.05;;
11685;SDS011;5899;51.282;6.094;2023-06-19T04:13:33;2.42;;;2.20;;
11685;SDS011;5899;51.282;6.094;2023-06-19T04:16:05;2.25;;;2.05;;
11685;SDS011;5899;51.282;6.094;2023-06-19T04:18:36;2.60;;;2.00;;
11685;SDS011;5899;51.282;6.094;2023-06-19T04:21:08;2.38;;;2.17;;
11685;SDS011;5899;51.282;6.094;2023-06-19T04:23:35;2.20;;;1.92;;
11685;SDS011;5899;51.282;6.094;2023-06-19T04:26:07;2.30;;;2.10;;
11685;SDS011;5899;51.282;6.094;2023-06-19T04:28:33;3.37;;;2.60;;
11685;SDS011;5899;51.282;6.094;2023-06-19T04:31:10;2.13;;;1.90;;
11685;SDS011;5899;51.282;6.094;2023-06-19T04:33:43;2.75;;;2.20;;
11685;SDS011;5899;51.282;6.094;2023-06-19T04:36:14;2.58;;;2.38;;
11685;SDS011;5899;51.282;6.094;2023-06-19T04:38:50;2.25;;;2.05;;
11685;SDS011;5899;51.282;6.094;2023-06-19T04:41:21;2.43;;;2.10;;
11685;SDS011;5899;51.282;6.094;2023-06-19T04:43:47;2.30;;;2.10;;
11685;SDS011;5899;51.282;6.094;2023-06-19T04:46:16;2.37;;;2.17;;
11685;SDS011;5899;51.282;6.094;2023-06-19T04:48:45;2.80;;;2.50;;
11685;SDS011;5899;51.282;6.094;2023-06-19T04:51:21;2.85;;;2.25;;
11685;SDS011;5899;51.282;6.094;2023-06-19T04:53:50;4.30;;;2.20;;
11685;SDS011;5899;51.282;6.094;2023-06-19T04:56:19;2.60;;;2.40;;
11685;SDS011;5899;51.282;6.094;2023-06-19T04:58:48;2.70;;;2.50;;
11685;SDS011;5899;51.282;6.094;2023-06-19T05:01:16;2.47;;;2.28;;
11685;SDS011;5899;51.282;6.094;2023-06-19T05:04:04;2.83;;;2.40;;
11685;SDS011;5899;51.282;6.094;2023-06-19T05:06:34;3.58;;;2.75;;
11685;SDS011;5899;51.282;6.094;2023-06-19T05:09:01;3.70;;;2.28;;
11685;SDS011;5899;51.282;6.094;2023-06-19T05:11:30;3.08;;;2.50;;
11685;SDS011;5899;51.282;6.094;2023-06-19T05:13:58;2.75;;;2.38;;
11685;SDS011;5899;51.282;6.094;2023-06-19T05:16:29;3.70;;;2.65;;
11685;SDS011;5899;51.282;6.094;2023-06-19T05:18:57;3.42;;;2.70;;
11685;SDS011;5899;51.282;6.094;2023-06-19T05:21:25;3.22;;;2.92;;
11685;SDS011;5899;51.282;6.094;2023-06-19T05:23:53;3.67;;;2.70;;
11685;SDS011;5899;51.282;6.094;2023-06-19T05:26:26;3.28;;;2.85;;
11685;SDS011;5899;51.282;6.094;2023-06-19T05:28:55;3.70;;;2.90;;
11685;SDS011;5899;51.282;6.094;2023-06-19T05:31:29;2.95;;;2.65;;
11685;SDS011;5899;51.282;6.094;2023-06-19T05:33:57;3.35;;;3.03;;
11685;SDS011;5899;51.282;6.094;2023-06-19T05:36:24;3.25;;;2.60;;
11685;SDS011;5899;51.282;6.094;2023-06-19T05:38:54;3.13;;;2.83;;
11685;SDS011;5899;51.282;6.094;2023-06-19T05:41:37;2.97;;;2.47;;
11685;SDS011;5899;51.282;6.094;2023-06-19T05:44:04;2.88;;;2.58;;
11685;SDS011;5899;51.282;6.094;2023-06-19T05:46:34;2.70;;;2.42;;
11685;SDS011;5899;51.282;6.094;2023-06-19T05:49:03;3.05;;;2.58;;
11685;SDS011;5899;51.282;6.094;2023-06-19T05:51:31;2.90;;;2.60;;
11685;SDS011;5899;51.282;6.094;2023-06-19T05:54:01;2.72;;;2.47;;
11685;SDS011;5899;51.282;6.094;2023-06-19T05:56:29;2.70;;;2.30;;
11685;SDS011;5899;51.282;6.094;2023-06-19T05:58:56;2.50;;;2.30;;
11685;SDS011;5899;51.282;6.094;2023-06-19T06:01:22;2.40;;;2.20;;
11685;SDS011;5899;51.282;6.094;2023-06-19T06:04:02;2.63;;;2.40;;
11685;SDS011;5899;51.282;6.094;2023-06-19T06:06:30;3.17;;;2.70;;
11685;SDS011;5899;51.282;6.094;2023-06-19T06:08:56;3.78;;;2.65;;
11685;SDS011;5899;51.282;6.094;2023-06-19T06:11:29;3.90;;;2.78;;
11685;SDS011;5899;51.282;6.094;2023-06-19T06:14:01;4.00;;;2.78;;
11685;SDS011;5899;51.282;6.094;2023-06-19T06:16:42;3.27;;;2.63;;
11685;SDS011;5899;51.282;6.094;2023-06-19T06:19:10;2.95;;;2.58;;
11685;SDS011;5899;51.282;6.094;2023-06-19T06:21:51;2.88;;;2.50;;
11685;SDS011;5899;51.282;6.094;2023-06-19T06:24:18;2.90;;;2.60;;
11685;SDS011;5899;51.282;6.094;2023-06-19T06:26:46;2.75;;;2.55;;
11685;SDS011;5899;51.282;6.094;2023-06-19T06:29:22;3.37;;;2.83;;
11685;SDS011;5899;51.282;6.094;2023-06-19T06:31:48;2.67;;;2.47;;
11685;SDS011;5899;51.282;6.094;2023-06-19T06:34:19;4.00;;;2.50;;
11685;SDS011;5899;51.282;6.094;2023-06-19T06:36:53;3.67;;;2.80;;
11685;SDS011;5899;51.282;6.094;2023-06-19T06:39:38;2.40;;;2.20;;
11685;SDS011;5899;51.282;6.094;2023-06-19T06:42:11;3.03;;;2.77;;
11685;SDS011;5899;51.282;6.094;2023-06-19T06:44:44;3.85;;;2.40;;
11685;SDS011;5899;51.282;6.094;2023-06-19T06:47:17;2.90;;;2.50;;
11685;SDS011;5899;51.282;6.094;2023-06-19T06:49:44;2.90;;;2.60;;
11685;SDS011;5899;51.282;6.094;2023-06-19T06:52:11;3.67;;;2.67;;
11685;SDS011;5899;51.282;6.094;2023-06-19T06:54:38;3.58;;;2.72;;
11685;SDS011;5899;51.282;6.094;2023-06-19T06:57:05;2.95;;;2.58;;
11685;SDS011;5899;51.282;6.094;2023-06-19T06:59:32;3.42;;;2.97;;
11685;SDS011;5899;51.282;6.094;2023-06-19T07:01:59;2.80;;;2.60;;
11685;SDS011;5899;51.282;6.094;2023-06-19T07:04:28;3.10;;;2.80;;
11685;SDS011;5899;51.282;6.094;2023-06-19T07:06:54;3.57;;;2.80;;
11685;SDS011;5899;51.282;6.094;2023-06-19T07:09:21;3.95;;;2.70;;
11685;SDS011;5899;51.282;6.094;2023-06-19T07:11:48;2.97;;;2.50;;
11685;SDS011;5899;51.282;6.094;2023-06-19T07:14:14;3.65;;;2.78;;
11685;SDS011;5899;51.282;6.094;2023-06-19T07:16:44;4.78;;;2.95;;
11685;SDS011;5899;51.282;6.094;2023-06-19T07:19:11;3.20;;;2.47;;
11685;SDS011;5899;51.282;6.094;2023-06-19T07:21:38;2.70;;;2.28;;
11685;SDS011;5899;51.282;6.094;2023-06-19T07:24:14;3.00;;;2.35;;
11685;SDS011;5899;51.282;6.094;2023-06-19T07:26:42;3.08;;;2.53;;
11685;SDS011;5899;51.282;6.094;2023-06-19T07:29:10;3.17;;;2.58;;
11685;SDS011;5899;51.282;6.094;2023-06-19T07:31:40;2.60;;;2.40;;
11685;SDS011;5899;51.282;6.094;2023-06-19T07:34:09;3.35;;;2.70;;
11685;SDS011;5899;51.282;6.094;2023-06-19T07:36:35;3.15;;;2.40;;
11685;SDS011;5899;51.282;6.094;2023-06-19T07:39:02;3.08;;;2.78;;
11685;SDS011;5899;51.282;6.094;2023-06-19T07:48:31;2.60;;;2.40;;
11685;SDS011;5899;51.282;6.094;2023-06-19T07:51:09;3.63;;;2.67;;
11685;SDS011;5899;51.282;6.094;2023-06-19T07:53:39;2.83;;;2.63;;
11685;SDS011;5899;51.282;6.094;2023-06-19T07:56:08;2.60;;;2.40;;
11685;SDS011;5899;51.282;6.094;2023-06-19T07:58:37;2.85;;;2.65;;
11685;SDS011;5899;51.282;6.094;2023-06-19T08:01:06;3.15;;;2.55;;
11685;SDS011;5899;51.282;6.094;2023-06-19T08:03:32;4.15;;;2.75;;
11685;SDS011;5899;51.282;6.094;2023-06-19T08:06:13;3.13;;;2.55;;
11685;SDS011;5899;51.282;6.094;2023-06-19T08:08:46;4.85;;;2.85;;
11685;SDS011;5899;51.282;6.094;2023-06-19T08:11:13;4.70;;;2.80;;
11685;SDS011;5899;51.282;6.094;2023-06-19T08:13:40;2.70;;;2.50;;
11685;SDS011;5899;51.282;6.094;2023-06-19T08:16:06;3.03;;;2.72;;
11685;SDS011;5899;51.282;6.094;2023-06-19T08:18:34;3.43;;;2.83;;
11685;SDS011;5899;51.282;6.094;2023-06-19T08:21:01;3.40;;;3.10;;
11685;SDS011;5899;51.282;6.094;2023-06-19T08:23:28;3.15;;;2.65;;
11685;SDS011;5899;51.282;6.094;2023-06-19T08:26:00;3.55;;;3.25;;
11685;SDS011;5899;51.282;6.094;2023-06-19T08:28:30;5.32;;;3.30;;
11685;SDS011;5899;51.282;6.094;2023-06-19T08:31:00;4.72;;;3.22;;
11685;SDS011;5899;51.282;6.094;2023-06-19T08:33:26;3.95;;;3.50;;
11685;SDS011;5899;51.282;6.094;2023-06-19T08:35:53;3.30;;;2.90;;
11685;SDS011;5899;51.282;6.094;2023-06-19T08:38:19;4.87;;;3.50;;
11685;SDS011;5899;51.282;6.094;2023-06-19T08:40:46;4.78;;;3.28;;
11685;SDS011;5899;51.282;6.094;2023-06-19T08:43:14;4.78;;;3.28;;
11685;SDS011;5899;51.282;6.094;2023-06-19T08:45:43;3.42;;;3.13;;
11685;SDS011;5899;51.282;6.094;2023-06-19T08:48:14;3.35;;;3.03;;
11685;SDS011;5899;51.282;6.094;2023-06-19T08:50:42;6.50;;;3.30;;
11685;SDS011;5899;51.282;6.094;2023-06-19T08:53:16;4.55;;;3.67;;
11685;SDS011;5899;51.282;6.094;2023-06-19T08:55:50;4.38;;;3.30;;
11685;SDS011;5899;51.282;6.094;2023-06-19T08:58:25;3.25;;;2.95;;
11685;SDS011;5899;51.282;6.094;2023-06-19T09:00:53;4.10;;;3.53;;
11685;SDS011;5899;51.282;6.094;2023-06-19T09:03:20;3.88;;;3.53;;
11685;SDS011;5899;51.282;6.094;2023-06-19T09:05:47;3.43;;;3.07;;
11685;SDS011;5899;51.282;6.094;2023-06-19T09:08:15;4.18;;;3.20;;
11685;SDS011;5899;51.282;6.094;2023-06-19T09:10:54;4.45;;;3.58;;
11685;SDS011;5899;51.282;6.094;2023-06-19T09:13:25;3.30;;;3.00;;
11685;SDS011;5899;51.282;6.094;2023-06-19T09:16:09;3.60;;;3.00;;
11685;SDS011;5899;51.282;6.094;2023-06-19T09:18:49;3.73;;;3.43;;
11685;SDS011;5899;51.282;6.094;2023-06-19T09:21:39;3.25;;;2.95;;
11685;SDS011;5899;51.282;6.094;2023-06-19T09:24:07;4.22;;;3.28;;
11685;SDS011;5899;51.282;6.094;2023-06-19T09:26:42;3.15;;;2.85;;
11685;SDS011;5899;51.282;6.094;2023-06-19T09:29:14;4.25;;;3.00;;
11685;SDS011;5899;51.282;6.094;2023-06-19T09:31:53;3.95;;;3.30;;
11685;SDS011;5899;51.282;6.094;2023-06-19T09:34:21;3.33;;;2.90;;
11685;SDS011;5899;51.282;6.094;2023-06-19T09:37:00;4.15;;;3.10;;
11685;SDS011;5899;51.282;6.094;2023-06-19T09:39:26;3.65;;;3.30;;
11685;SDS011;5899;51.282;6.094;2023-06-19T09:42:01;4.03;;;3.42;;
11685;SDS011;5899;51.282;6.094;2023-06-19T09:44:31;3.80;;;3.25;;
11685;SDS011;5899;51.282;6.094;2023-06-19T09:47:00;3.72;;;3.28;;
11685;SDS011;5899;51.282;6.094;2023-06-19T09:49:28;4.25;;;3.35;;
11685;SDS011;5899;51.282;6.094;2023-06-19T09:52:03;4.53;;;3.60;;
11685;SDS011;5899;51.282;6.094;2023-06-19T09:54:39;4.35;;;3.22;;
11685;SDS011;5899;51.282;6.094;2023-06-19T09:57:09;3.63;;;3.30;;
11685;SDS011;5899;51.282;6.094;2023-06-19T10:03:10;4.00;;;3.60;;
11685;SDS011;5899;51.282;6.094;2023-06-19T10:05:40;4.45;;;3.28;;
11685;SDS011;5899;51.282;6.094;2023-06-19T10:08:25;3.45;;;3.00;;
11685;SDS011;5899;51.282;6.094;2023-06-19T10:10:54;3.85;;;3.20;;
11685;SDS011;5899;51.282;6.094;2023-06-19T10:13:36;4.05;;;3.53;;
11685;SDS011;5899;51.282;6.094;2023-06-19T10:16:19;4.60;;;3.13;;
11685;SDS011;5899;51.282;6.094;2023-06-19T10:18:56;4.20;;;3.05;;
11685;SDS011;5899;51.282;6.094;2023-06-19T10:21:26;3.30;;;2.93;;
11685;SDS011;5899;51.282;6.094;2023-06-19T10:24:13;3.72;;;2.95;;
11685;SDS011;5899;51.282;6.094;2023-06-19T10:26:56;3.90;;;3.07;;
11685;SDS011;5899;51.282;6.094;2023-06-19T10:29:23;3.30;;;3.00;;
11685;SDS011;5899;51.282;6.094;2023-06-19T10:32:05;3.97;;;3.20;;
11685;SDS011;5899;51.282;6.094;2023-06-19T10:34:46;4.45;;;2.95;;
11685;SDS011;5899;51.282;6.094;2023-06-19T10:37:20;4.70;;;3.33;;
11685;SDS011;5899;51.282;6.094;2023-06-19T10:40:28;3.37;;;3.07;;
11685;SDS011;5899;51.282;6.094;2023-06-19T10:43:09;3.38;;;3.08;;
11685;SDS011;5899;51.282;6.094;2023-06-19T10:45:41;3.20;;;2.90;;
11685;SDS011;5899;51.282;6.094;2023-06-19T10:48:11;3.03;;;2.72;;
11685;SDS011;5899;51.282;6.094;2023-06-19T10:50:42;3.20;;;2.90;;
11685;SDS011;5899;51.282;6.094;2023-06-19T10:53:12;3.30;;;2.90;;
11685;SDS011;5899;51.282;6.094;2023-06-19T10:55:55;4.05;;;2.95;;
11685;SDS011;5899;51.282;6.094;2023-06-19T10:58:28;3.50;;;3.20;;
11685;SDS011;5899;51.282;6.094;2023-06-19T11:00:58;3.83;;;2.88;;
11685;SDS011;5899;51.282;6.094;2023-06-19T11:03:25;3.15;;;2.90;;
11685;SDS011;5899;51.282;6.094;2023-06-19T11:09:11;4.32;;;3.03;;
11685;SDS011;5899;51.282;6.094;2023-06-19T11:11:38;4.22;;;3.17;;
11685;SDS011;5899;51.282;6.094;2023-06-19T11:14:19;5.25;;;3.13;;
11685;SDS011;5899;51.282;6.094;2023-06-19T11:16:50;3.85;;;2.90;;
11685;SDS011;5899;51.282;6.094;2023-06-19T11:19:56;3.33;;;2.80;;
11685;SDS011;5899;51.282;6.094;2023-06-19T11:22:09;3.80;;;3.20;;
11685;SDS011;5899;51.282;6.094;2023-06-19T11:24:45;5.22;;;3.10;;
11685;SDS011;5899;51.282;6.094;2023-06-19T11:30:19;4.18;;;3.10;;
11685;SDS011;5899;51.282;6.094;2023-06-19T11:32:56;3.55;;;3.13;;
11685;SDS011;5899;51.282;6.094;2023-06-19T11:35:32;4.22;;;3.40;;
11685;SDS011;5899;51.282;6.094;2023-06-19T11:57:52;3.97;;;3.10;;
11685;SDS011;5899;51.282;6.094;2023-06-19T12:00:44;3.58;;;3.28;;
11685;SDS011;5899;51.282;6.094;2023-06-19T12:03:29;3.88;;;3.03;;
11685;SDS011;5899;51.282;6.094;2023-06-19T12:06:12;3.63;;;3.22;;
11685;SDS011;5899;51.282;6.094;2023-06-19T12:08:41;5.17;;;2.97;;
11685;SDS011;5899;51.282;6.094;2023-06-19T12:11:32;3.60;;;2.72;;
11685;SDS011;5899;51.282;6.094;2023-06-19T12:17:16;4.43;;;3.13;;
11685;SDS011;5899;51.282;6.094;2023-06-19T12:19:51;3.38;;;2.92;;
11685;SDS011;5899;51.282;6.094;2023-06-19T12:22:18;3.25;;;2.63;;
11685;SDS011;5899;51.282;6.094;2023-06-19T12:24:48;3.67;;;2.93;;
11685;SDS011;5899;51.282;6.094;2023-06-19T12:27:26;5.57;;;2.88;;
11685;SDS011;5899;51.282;6.094;2023-06-19T12:29:56;3.95;;;3.10;;
11685;SDS011;5899;51.282;6.094;2023-06-19T12:35:14;3.83;;;3.10;;
11685;SDS011;5899;51.282;6.094;2023-06-19T12:37:41;5.07;;;3.28;;
11685;SDS011;5899;51.282;6.094;2023-06-19T12:40:11;3.30;;;2.72;;
11685;SDS011;5899;51.282;6.094;2023-06-19T12:42:40;5.22;;;3.30;;
11685;SDS011;5899;51.282;6.094;2023-06-19T12:45:08;3.38;;;2.95;;
11685;SDS011;5899;51.282;6.094;2023-06-19T12:47:39;4.03;;;3.10;;
11685;SDS011;5899;51.282;6.094;2023-06-19T12:50:06;3.80;;;3.20;;
11685;SDS011;5899;51.282;6.094;2023-06-19T12:55:24;3.42;;;2.90;;
11685;SDS011;5899;51.282;6.094;2023-06-19T12:57:56;4.32;;;2.72;;
11685;SDS011;5899;51.282;6.094;2023-06-19T13:03:34;3.75;;;2.97;;
11685;SDS011;5899;51.282;6.094;2023-06-19T13:06:05;3.22;;;2.92;;
11685;SDS011;5899;51.282;6.094;2023-06-19T13:08:37;4.90;;;3.47;;
11685;SDS011;5899;51.282;6.094;2023-06-19T13:11:11;3.88;;;2.83;;
11685;SDS011;5899;51.282;6.094;2023-06-19T13:13:41;3.80;;;3.35;;
11685;SDS011;5899;51.282;6.094;2023-06-19T13:16:13;3.53;;;2.80;;
11685;SDS011;5899;51.282;6.094;2023-06-19T13:18:41;4.30;;;2.63;;
11685;SDS011;5899;51.282;6.094;2023-06-19T13:21:20;3.65;;;2.85;;
11685;SDS011;5899;51.282;6.094;2023-06-19T13:24:04;3.08;;;2.72;;
11685;SDS011;5899;51.282;6.094;2023-06-19T13:26:34;3.42;;;2.97;;
11685;SDS011;5899;51.282;6.094;2023-06-19T13:29:06;3.28;;;2.97;;
11685;SDS011;5899;51.282;6.094;2023-06-19T13:34:44;3.65;;;3.00;;
11685;SDS011;5899;51.282;6.094;2023-06-19T13:37:36;4.32;;;3.05;;
11685;SDS011;5899;51.282;6.094;2023-06-19T13:43:12;4.32;;;2.70;;
11685;SDS011;5899;51.282;6.094;2023-06-19T13:45:56;3.38;;;2.65;;
11685;SDS011;5899;51.282;6.094;2023-06-19T13:48:26;3.08;;;2.78;;
11685;SDS011;5899;51.282;6.094;2023-06-19T13:50:56;2.78;;;2.58;;
11685;SDS011;5899;51.282;6.094;2023-06-19T13:53:26;4.07;;;3.00;;
11685;SDS011;5899;51.282;6.094;2023-06-19T13:56:03;3.13;;;2.83;;
11685;SDS011;5899;51.282;6.094;2023-06-19T13:58:44;3.47;;;3.13;;
11685;SDS011;5899;51.282;6.094;2023-06-19T14:01:14;5.15;;;2.80;;
11685;SDS011;5899;51.282;6.094;2023-06-19T14:03:44;4.00;;;2.58;;
11685;SDS011;5899;51.282;6.094;2023-06-19T14:06:20;4.25;;;2.78;;
11685;SDS011;5899;51.282;6.094;2023-06-19T14:08:55;3.40;;;3.10;;
11685;SDS011;5899;51.282;6.094;2023-06-19T14:11:29;3.78;;;2.92;;
11685;SDS011;5899;51.282;6.094;2023-06-19T14:13:59;3.03;;;2.72;;
11685;SDS011;5899;51.282;6.094;2023-06-19T14:16:30;3.15;;;2.85;;
11685;SDS011;5899;51.282;6.094;2023-06-19T14:19:01;4.57;;;2.80;;
11685;SDS011;5899;51.282;6.094;2023-06-19T14:21:35;3.58;;;2.90;;
11685;SDS011;5899;51.282;6.094;2023-06-19T14:24:09;4.53;;;3.05;;
11685;SDS011;5899;51.282;6.094;2023-06-19T14:27:05;3.10;;;2.78;;
11685;SDS011;5899;51.282;6.094;2023-06-19T14:29:43;3.00;;;2.70;;
11685;SDS011;5899;51.282;6.094;2023-06-19T14:32:11;3.50;;;2.70;;
11685;SDS011;5899;51.282;6.094;2023-06-19T14:37:30;4.05;;;2.83;;
11685;SDS011;5899;51.282;6.094;2023-06-19T14:40:29;3.70;;;2.70;;
11685;SDS011;5899;51.282;6.094;2023-06-19T14:43:17;4.20;;;2.93;;
11685;SDS011;5899;51.282;6.094;2023-06-19T14:45:47;4.43;;;3.30;;
11685;SDS011;5899;51.282;6.094;2023-06-19T14:48:18;4.38;;;2.95;;
11685;SDS011;5899;51.282;6.094;2023-06-19T14:50:45;3.30;;;2.85;;
11685;SDS011;5899;51.282;6.094;2023-06-19T14:53:59;4.70;;;3.22;;
11685;SDS011;5899;51.282;6.094;2023-06-19T14:59:20;3.17;;;2.80;;
11685;SDS011;5899;51.282;6.094;2023-06-19T15:02:21;3.67;;;2.53;;
11685;SDS011;5899;51.282;6.094;2023-06-19T15:04:58;3.20;;;2.85;;
11685;SDS011;5899;51.282;6.094;2023-06-19T15:13:41;3.63;;;2.90;;
11685;SDS011;5899;51.282;6.094;2023-06-19T15:16:30;3.78;;;2.95;;
11685;SDS011;5899;51.282;6.094;2023-06-19T15:21:52;4.57;;;3.10;;
11685;SDS011;5899;51.282;6.094;2023-06-19T15:24:23;3.17;;;2.77;;
11685;SDS011;5899;51.282;6.094;2023-06-19T15:26:51;3.38;;;2.85;;
11685;SDS011;5899;51.282;6.094;2023-06-19T15:29:23;2.70;;;2.42;;
11685;SDS011;5899;51.282;6.094;2023-06-19T15:32:07;3.53;;;2.90;;
11685;SDS011;5899;51.282;6.094;2023-06-19T15:34:53;3.08;;;2.78;;
11685;SDS011;5899;51.282;6.094;2023-06-19T15:43:36;3.08;;;2.78;;
11685;SDS011;5899;51.282;6.094;2023-06-19T15:46:05;3.92;;;2.75;;
11685;SDS011;5899;51.282;6.094;2023-06-19T15:48:35;2.60;;;2.40;;
11685;SDS011;5899;51.282;6.094;2023-06-19T15:51:02;3.70;;;2.53;;
11685;SDS011;5899;51.282;6.094;2023-06-19T15:53:30;3.15;;;2.40;;
11685;SDS011;5899;51.282;6.094;2023-06-19T15:55:56;3.03;;;2.30;;
11685;SDS011;5899;51.282;6.094;2023-06-19T15:58:24;4.13;;;2.95;;
11685;SDS011;5899;51.282;6.094;2023-06-19T16:00:59;3.47;;;2.78;;
11685;SDS011;5899;51.282;6.094;2023-06-19T16:03:27;3.70;;;3.00;;
11685;SDS011;5899;51.282;6.094;2023-06-19T16:05:57;3.90;;;2.65;;
11685;SDS011;5899;51.282;6.094;2023-06-19T16:08:30;3.40;;;2.40;;
11685;SDS011;5899;51.282;6.094;2023-06-19T16:10:59;4.00;;;2.78;;
11685;SDS011;5899;51.282;6.094;2023-06-19T16:13:27;3.58;;;2.83;;
11685;SDS011;5899;51.282;6.094;2023-06-19T16:15:56;2.65;;;2.45;;
11685;SDS011;5899;51.282;6.094;2023-06-19T16:18:27;3.30;;;3.00;;
11685;SDS011;5899;51.282;6.094;2023-06-19T16:20:56;4.03;;;2.72;;
11685;SDS011;5899;51.282;6.094;2023-06-19T16:23:27;3.47;;;3.10;;
11685;SDS011;5899;51.282;6.094;2023-06-19T16:26:15;2.88;;;2.67;;
11685;SDS011;5899;51.282;6.094;2023-06-19T16:28:41;3.78;;;2.50;;
11685;SDS011;5899;51.282;6.094;2023-06-19T16:31:13;3.00;;;2.72;;
11685;SDS011;5899;51.282;6.094;2023-06-19T16:33:45;2.97;;;2.60;;
11685;SDS011;5899;51.282;6.094;2023-06-19T16:36:12;3.38;;;2.30;;
11685;SDS011;5899;51.282;6.094;2023-06-19T16:38:40;3.10;;;2.40;;
11685;SDS011;5899;51.282;6.094;2023-06-19T16:41:07;3.47;;;2.75;;
11685;SDS011;5899;51.282;6.094;2023-06-19T16:43:37;2.65;;;2.40;;
11685;SDS011;5899;51.282;6.094;2023-06-19T16:46:06;3.03;;;2.50;;
11685;SDS011;5899;51.282;6.094;2023-06-19T16:48:34;3.07;;;2.63;;
11685;SDS011;5899;51.282;6.094;2023-06-19T16:51:01;3.95;;;2.78;;